createdAt,value
2022-09-11T00:02:12.309Z,11.98
2022-09-11T00:04:39.090Z,12.18
2022-09-11T00:07:06.037Z,12.90
2022-09-11T00:09:32.845Z,12.27
2022-09-11T00:11:59.634Z,15.15
2022-09-11T00:14:28.981Z,11.68
2022-09-11T00:16:55.835Z,11.38
2022-09-11T00:19:22.729Z,12.38
2022-09-11T00:21:52.419Z,15.05
2022-09-11T00:24:19.490Z,13.98
2022-09-11T00:26:47.519Z,12.13
2022-09-11T00:29:14.291Z,15.55
2022-09-11T00:31:41.749Z,13.13
2022-09-11T00:34:08.739Z,12.57
2022-09-11T00:36:39.226Z,12.35
2022-09-11T00:39:06.096Z,12.85
2022-09-11T00:41:36.241Z,13.05
2022-09-11T00:44:28.943Z,13.38
2022-09-11T00:47:02.274Z,13.40
2022-09-11T00:49:32.616Z,13.63
2022-09-11T00:52:13.727Z,14.20
2022-09-11T00:54:46.406Z,12.38
2022-09-11T00:57:13.186Z,15.25
2022-09-11T00:59:41.330Z,11.32
2022-09-11T01:02:09.165Z,11.20
2022-09-11T01:04:36.003Z,18.60
2022-09-11T01:07:02.779Z,11.50
2022-09-11T01:09:29.690Z,13.20
2022-09-11T01:12:07.674Z,15.38
2022-09-11T01:14:58.208Z,10.35
2022-09-11T01:17:31.170Z,15.57
2022-09-11T01:20:16.338Z,11.60
2022-09-11T01:23:12.911Z,12.32
2022-09-11T01:26:01.442Z,13.40
2022-09-11T01:28:52.782Z,11.15
2022-09-11T01:31:22.216Z,10.77
2022-09-11T01:34:16.175Z,11.20
2022-09-11T01:36:53.758Z,17.10
2022-09-11T01:39:21.614Z,10.82
2022-09-11T01:42:00.234Z,13.48
2022-09-11T01:44:29.928Z,13.02
2022-09-11T01:46:56.754Z,12.80
2022-09-11T01:49:35.869Z,13.98
2022-09-11T01:52:12.905Z,12.50
2022-09-11T01:54:44.555Z,10.93
2022-09-11T01:57:15.278Z,11.45
2022-09-11T01:59:47.966Z,11.60
2022-09-11T02:02:17.437Z,12.70
2022-09-11T02:04:55.601Z,12.32
2022-09-11T02:07:24.538Z,11.02
2022-09-11T02:10:17.272Z,10.73
2022-09-11T02:12:46.809Z,12.75
2022-09-11T02:15:15.877Z,13.35
2022-09-11T02:17:45.846Z,11.57
2022-09-11T02:20:12.690Z,11.73
2022-09-11T02:22:40.416Z,12.18
2022-09-11T02:25:07.769Z,17.00
2022-09-11T02:27:34.752Z,14.38
2022-09-11T02:30:01.695Z,12.65
2022-09-11T02:32:28.450Z,12.50
2022-09-11T02:34:55.533Z,12.05
2022-09-11T02:37:49.276Z,12.27
2022-09-11T02:40:22.007Z,11.57
2022-09-11T02:42:57.794Z,14.85
2022-09-11T02:46:02.136Z,17.20
2022-09-11T02:48:45.852Z,12.82
2022-09-11T02:51:28.987Z,12.75
2022-09-11T02:53:59.857Z,17.98
2022-09-11T02:56:35.556Z,13.90
2022-09-11T02:59:06.672Z,12.85
2022-09-11T03:01:53.583Z,13.18
2022-09-11T03:04:22.286Z,13.43
2022-09-11T03:06:50.035Z,13.13
2022-09-11T03:09:17.518Z,12.32
2022-09-11T03:11:45.431Z,13.77
2022-09-11T03:14:12.514Z,13.77
2022-09-11T03:16:39.313Z,14.68
2022-09-11T03:19:06.184Z,14.98
2022-09-11T03:21:33.635Z,15.88
2022-09-11T03:24:00.627Z,16.25
2022-09-11T03:26:27.519Z,16.10
2022-09-11T03:28:54.362Z,14.13
2022-09-11T03:31:21.206Z,13.65
2022-09-11T03:33:48.071Z,14.05
2022-09-11T03:36:15.113Z,13.30
2022-09-11T03:38:41.948Z,14.10
2022-09-11T03:41:09.572Z,14.48
2022-09-11T03:43:36.511Z,13.27
2022-09-11T03:46:03.437Z,13.63
2022-09-11T03:48:30.221Z,13.63
2022-09-11T03:50:58.950Z,13.90
2022-09-11T03:53:26.772Z,13.10
2022-09-11T03:55:54.825Z,12.25
2022-09-11T03:58:21.670Z,13.38
2022-09-11T04:00:48.700Z,13.95
2022-09-11T04:03:15.746Z,12.32
2022-09-11T04:05:43.968Z,13.15
2022-09-11T04:08:13.939Z,11.40
2022-09-11T04:10:40.836Z,11.93
2022-09-11T04:13:07.628Z,11.60
2022-09-11T04:15:34.439Z,12.02
2022-09-11T04:18:05.460Z,12.07
2022-09-11T04:20:32.525Z,14.38
2022-09-11T04:22:59.334Z,13.85
2022-09-11T04:25:26.131Z,14.27
2022-09-11T04:27:52.898Z,14.65
2022-09-11T04:30:19.898Z,15.25
2022-09-11T04:32:46.719Z,16.00
2022-09-11T04:35:14.330Z,15.65
2022-09-11T04:37:41.114Z,15.70
2022-09-11T04:40:09.959Z,15.95
2022-09-11T04:42:36.801Z,17.33
2022-09-11T04:45:04.598Z,18.65
2022-09-11T04:47:31.385Z,18.75
2022-09-11T04:49:58.192Z,19.92
2022-09-11T04:52:25.114Z,20.52
2022-09-11T04:54:51.900Z,20.80
2022-09-11T04:57:18.737Z,20.20
2022-09-11T04:59:45.543Z,22.52
2022-09-11T05:02:12.617Z,24.08
2022-09-11T05:04:39.479Z,21.30
2022-09-11T05:07:07.068Z,21.15
2022-09-11T05:09:33.861Z,23.17
2022-09-11T05:12:02.155Z,24.90
2022-09-11T05:14:29.254Z,24.83
2022-09-11T05:16:56.226Z,26.42
2022-09-11T05:19:23.052Z,28.50
2022-09-11T05:21:49.801Z,28.15
2022-09-11T05:24:16.777Z,29.73
2022-09-11T05:26:44.531Z,28.52
2022-09-11T05:29:13.418Z,28.67
2022-09-11T05:31:40.843Z,35.08
2022-09-11T05:34:08.770Z,34.95
2022-09-11T05:36:36.991Z,35.50
2022-09-11T05:39:04.062Z,36.42
2022-09-11T05:41:31.003Z,40.80
2022-09-11T05:43:58.585Z,41.67
2022-09-11T05:46:26.014Z,38.45
2022-09-11T05:48:52.817Z,40.28
2022-09-11T05:51:21.392Z,44.03
2022-09-11T05:53:51.903Z,42.65
2022-09-11T05:56:21.533Z,43.13
2022-09-11T05:58:48.611Z,45.03
2022-09-11T06:01:17.044Z,45.28
2022-09-11T06:03:44.214Z,47.33
2022-09-11T06:06:12.330Z,46.30
2022-09-11T06:08:39.946Z,46.65
2022-09-11T06:11:07.643Z,45.63
2022-09-11T06:13:46.447Z,44.10
2022-09-11T06:16:18.238Z,40.08
2022-09-11T06:18:49.558Z,41.80
2022-09-11T06:21:20.250Z,44.17
2022-09-11T06:23:48.347Z,44.88
2022-09-11T06:26:16.663Z,42.35
2022-09-11T06:28:43.673Z,44.47
2022-09-11T06:31:12.736Z,42.28
2022-09-11T06:33:40.135Z,40.42
2022-09-11T06:36:10.199Z,38.90
2022-09-11T06:38:38.256Z,38.40
2022-09-11T06:41:06.438Z,37.42
2022-09-11T06:43:33.448Z,36.10
2022-09-11T06:46:13.190Z,37.70
2022-09-11T06:48:44.495Z,34.33
2022-09-11T06:51:13.726Z,34.40
2022-09-11T06:53:43.578Z,35.55
2022-09-11T06:56:19.698Z,35.40
2022-09-11T06:58:46.624Z,38.55
2022-09-11T07:01:16.805Z,40.70
2022-09-11T07:03:51.277Z,33.05
2022-09-11T07:06:25.618Z,28.48
2022-09-11T07:09:02.565Z,30.35
2022-09-11T07:11:36.436Z,24.27
2022-09-11T07:14:05.905Z,23.90
2022-09-11T07:16:33.814Z,23.38
2022-09-11T07:19:00.629Z,24.23
2022-09-11T07:21:30.729Z,23.10
2022-09-11T07:24:00.214Z,24.58
2022-09-11T07:26:27.986Z,24.98
2022-09-11T07:28:57.549Z,23.10
2022-09-11T07:31:26.549Z,21.27
2022-09-11T07:33:53.359Z,23.92
2022-09-11T07:36:21.729Z,24.98
2022-09-11T07:38:51.159Z,23.83
2022-09-11T07:41:19.390Z,23.23
2022-09-11T07:43:46.451Z,21.23
2022-09-11T07:46:13.575Z,21.85
2022-09-11T07:48:49.473Z,16.80
2022-09-11T07:51:17.020Z,18.63
2022-09-11T07:53:45.376Z,17.95
2022-09-11T07:56:14.829Z,17.55
2022-09-11T07:58:43.158Z,13.63
2022-09-11T08:01:13.617Z,10.82
2022-09-11T08:03:43.160Z,10.48
2022-09-11T08:06:22.381Z,13.15
2022-09-11T08:08:54.545Z,10.60
2022-09-11T08:11:24.322Z,9.50
2022-09-11T08:13:51.797Z,12.27
2022-09-11T08:16:19.665Z,13.75
2022-09-11T08:18:46.614Z,16.17
2022-09-11T08:21:13.446Z,18.20
2022-09-11T08:23:41.720Z,18.30
2022-09-11T08:26:10.063Z,13.80
2022-09-11T08:28:37.371Z,15.02
2022-09-11T08:31:05.265Z,12.13
2022-09-11T08:33:33.331Z,17.77
2022-09-11T08:36:00.673Z,15.82
2022-09-11T08:38:27.999Z,16.00
2022-09-11T08:40:56.269Z,17.63
2022-09-11T08:43:25.426Z,17.23
2022-09-11T08:45:54.906Z,15.35
2022-09-11T08:48:28.721Z,22.48
2022-09-11T08:50:55.532Z,19.52
2022-09-11T08:53:22.282Z,18.35
2022-09-11T08:55:54.466Z,16.80
2022-09-11T08:58:57.837Z,18.90
2022-09-11T09:01:37.264Z,14.95
2022-09-11T09:04:19.901Z,15.73
2022-09-11T09:07:16.591Z,16.77
2022-09-11T09:09:47.863Z,13.90
2022-09-11T09:12:51.143Z,15.07
2022-09-11T09:15:29.564Z,14.50
2022-09-11T09:18:02.268Z,13.73
2022-09-11T09:20:56.761Z,12.07
2022-09-11T09:23:25.494Z,12.65
2022-09-11T09:25:58.806Z,13.80
2022-09-11T09:28:43.844Z,15.30
2022-09-11T09:31:11.041Z,13.77
2022-09-11T09:33:39.065Z,14.63
2022-09-11T09:36:17.645Z,10.48
2022-09-11T09:38:44.624Z,10.48
2022-09-11T09:41:37.102Z,13.05
2022-09-11T09:44:27.012Z,10.20
2022-09-11T09:46:54.172Z,11.30
2022-09-11T09:49:28.301Z,10.50
2022-09-11T09:51:55.908Z,12.52
2022-09-11T09:54:28.983Z,10.20
2022-09-11T09:57:07.404Z,10.93
2022-09-11T09:59:50.631Z,8.35
2022-09-11T10:02:53.979Z,5.68
2022-09-11T10:05:31.125Z,7.40
2022-09-11T10:08:05.807Z,7.68
2022-09-11T10:10:38.156Z,4.38
2022-09-11T10:13:21.277Z,7.70
2022-09-11T10:15:52.209Z,4.22
2022-09-11T10:18:42.770Z,5.93
2022-09-11T10:21:12.992Z,7.45
2022-09-11T10:24:00.879Z,3.78
2022-09-11T10:26:34.404Z,6.63
2022-09-11T10:29:25.826Z,4.53
2022-09-11T10:32:04.324Z,4.53
2022-09-11T10:34:38.283Z,7.40
2022-09-11T10:37:14.291Z,6.47
2022-09-11T10:39:42.708Z,7.88
2022-09-11T10:42:22.410Z,7.10
2022-09-11T10:44:50.519Z,7.60
2022-09-11T10:47:28.391Z,5.50
2022-09-11T10:50:20.576Z,5.47
2022-09-11T10:53:12.323Z,7.93
2022-09-11T10:55:41.674Z,6.47
2022-09-11T10:58:14.192Z,5.57
2022-09-11T11:00:40.971Z,6.47
2022-09-11T11:03:17.373Z,8.55
2022-09-11T11:06:09.610Z,7.15
2022-09-11T11:09:10.767Z,6.13
2022-09-11T11:11:53.258Z,6.13
2022-09-11T11:14:48.415Z,7.10
2022-09-11T11:17:40.589Z,5.22
2022-09-11T11:20:29.082Z,8.07
2022-09-11T11:23:16.615Z,7.03
2022-09-11T11:25:58.397Z,6.47
2022-09-11T11:28:51.590Z,4.30
2022-09-11T11:31:44.249Z,5.43
2022-09-11T11:34:23.296Z,3.83
2022-09-11T11:37:06.662Z,3.47
2022-09-11T11:39:54.516Z,2.75
2022-09-11T11:42:29.621Z,5.00
2022-09-11T11:45:05.378Z,3.70
2022-09-11T11:47:36.912Z,3.97
2022-09-11T11:50:31.936Z,10.57
2022-09-11T11:53:21.083Z,3.10
2022-09-11T11:55:54.404Z,7.03
2022-09-11T11:58:30.383Z,3.97
2022-09-11T12:01:01.678Z,5.75
2022-09-11T12:03:33.505Z,3.67
2022-09-11T12:06:00.319Z,5.43
2022-09-11T12:08:27.674Z,4.18
2022-09-11T12:10:59.331Z,5.63
2022-09-11T12:13:31.534Z,4.35
2022-09-11T12:16:02.902Z,4.97
2022-09-11T12:18:29.688Z,7.40
2022-09-11T12:21:25.650Z,5.45
2022-09-11T12:23:59.897Z,3.70
2022-09-11T12:26:32.615Z,3.78
2022-09-11T12:29:12.297Z,7.03
2022-09-11T12:31:51.327Z,6.97
2022-09-11T12:34:38.774Z,4.72
2022-09-11T12:37:09.254Z,5.28
2022-09-11T12:39:51.637Z,3.72
2022-09-11T12:42:22.990Z,3.85
2022-09-11T12:44:49.733Z,4.78
2022-09-11T12:47:19.798Z,5.50
2022-09-11T12:50:12.748Z,4.65
2022-09-11T12:53:02.204Z,3.08
2022-09-11T12:55:33.712Z,5.50
2022-09-11T12:58:06.762Z,5.07
2022-09-11T13:00:35.266Z,4.07
2022-09-11T13:03:02.390Z,3.55
2022-09-11T13:05:38.039Z,5.38
2022-09-11T13:08:36.479Z,4.15
2022-09-11T13:11:34.106Z,7.30
2022-09-11T13:14:01.196Z,3.72
2022-09-11T13:16:34.709Z,5.78
2022-09-11T13:19:13.961Z,4.00
2022-09-11T13:21:41.969Z,8.80
2022-09-11T13:24:27.968Z,4.43
2022-09-11T13:26:56.499Z,5.03
2022-09-11T13:29:24.795Z,2.55
2022-09-11T13:31:51.654Z,5.93
2022-09-11T13:34:18.938Z,7.18
2022-09-11T13:36:49.990Z,5.75
2022-09-11T13:39:19.192Z,5.57
2022-09-11T13:41:47.899Z,6.47
2022-09-11T13:44:44.154Z,6.07
2022-09-11T13:47:20.358Z,6.35
2022-09-11T13:49:47.295Z,5.88
2022-09-11T13:52:14.815Z,4.30
2022-09-11T13:54:49.322Z,3.47
2022-09-11T13:57:21.175Z,4.45
2022-09-11T13:59:54.970Z,5.10
2022-09-11T14:02:35.718Z,5.40
2022-09-11T14:05:16.619Z,5.13
2022-09-11T14:07:56.653Z,4.75
2022-09-11T14:10:27.139Z,2.90
2022-09-11T14:13:10.992Z,3.58
2022-09-11T14:15:40.653Z,6.75
2022-09-11T14:18:28.621Z,5.25
2022-09-11T14:20:55.467Z,3.90
2022-09-11T14:23:27.441Z,4.55
2022-09-11T14:26:24.366Z,2.63
2022-09-11T14:28:59.729Z,7.00
2022-09-11T14:31:44.119Z,3.08
2022-09-11T14:34:17.914Z,3.55
2022-09-11T14:36:57.913Z,5.53
2022-09-11T14:39:33.003Z,5.10
2022-09-11T14:42:00.004Z,4.28
2022-09-11T14:44:27.062Z,3.25
2022-09-11T14:46:54.980Z,4.25
2022-09-11T14:49:22.334Z,5.78
2022-09-11T14:51:53.771Z,4.53
2022-09-11T14:54:20.915Z,3.60
2022-09-11T14:56:49.698Z,4.20
2022-09-11T14:59:16.874Z,5.13
2022-09-11T15:01:43.738Z,4.35
2022-09-11T15:04:22.991Z,4.38
2022-09-11T15:06:55.474Z,6.47
2022-09-11T15:09:23.084Z,6.18
2022-09-11T15:11:52.372Z,5.35
2022-09-11T15:14:44.774Z,6.00
2022-09-11T15:17:10.669Z,3.58
2022-09-11T15:19:52.699Z,2.92
2022-09-11T15:22:19.716Z,4.50
2022-09-11T15:24:48.864Z,3.90
2022-09-11T15:27:15.774Z,4.43
2022-09-11T15:29:42.817Z,5.72
2022-09-11T15:32:10.378Z,4.65
2022-09-11T15:34:38.791Z,4.97
2022-09-11T15:37:06.058Z,4.40
2022-09-11T15:39:34.039Z,5.25
2022-09-11T15:42:02.061Z,2.80
2022-09-11T15:44:29.255Z,6.28
2022-09-11T15:46:57.124Z,4.10
2022-09-11T15:49:24.033Z,6.45
2022-09-11T15:51:51.243Z,3.40
2022-09-11T15:54:18.497Z,3.90
2022-09-11T15:56:46.807Z,5.05
2022-09-11T15:59:15.228Z,2.40
2022-09-11T16:01:42.324Z,3.85
2022-09-11T16:04:10.806Z,4.00
2022-09-11T16:06:39.441Z,2.83
2022-09-11T16:09:07.898Z,5.50
2022-09-11T16:11:36.549Z,2.53
2022-09-11T16:14:03.466Z,4.57
2022-09-11T16:16:30.227Z,3.55
2022-09-11T16:18:58.578Z,5.55
2022-09-11T16:21:27.212Z,6.43
2022-09-11T16:24:00.648Z,3.95
2022-09-11T16:26:29.167Z,4.38
2022-09-11T16:28:55.942Z,4.15
2022-09-11T16:31:22.978Z,3.60
2022-09-11T16:33:49.983Z,4.78
2022-09-11T16:36:25.802Z,4.80
2022-09-11T16:39:12.098Z,4.50
2022-09-11T16:41:39.140Z,6.00
2022-09-11T16:44:07.969Z,6.63
2022-09-11T16:46:34.821Z,4.03
2022-09-11T16:49:07.420Z,5.43
2022-09-11T16:51:34.441Z,3.80
2022-09-11T16:54:07.737Z,3.60
2022-09-11T16:56:46.599Z,6.00
2022-09-11T16:59:16.807Z,6.43
2022-09-11T17:01:57.382Z,3.13
2022-09-11T17:04:24.578Z,6.50
2022-09-11T17:06:51.334Z,4.30
2022-09-11T17:09:18.151Z,5.80
2022-09-11T17:11:47.926Z,5.15
2022-09-11T17:14:21.227Z,2.72
2022-09-11T17:16:48.250Z,4.15
2022-09-11T17:19:15.091Z,4.80
2022-09-11T17:21:41.918Z,5.10
2022-09-11T17:24:08.818Z,10.48
2022-09-11T17:26:36.109Z,8.15
2022-09-11T17:29:03.515Z,3.85
2022-09-11T17:31:30.526Z,4.72
2022-09-11T17:33:57.513Z,4.53
2022-09-11T17:36:24.393Z,6.75
2022-09-11T17:38:52.627Z,5.78
2022-09-11T17:41:20.915Z,4.55
2022-09-11T17:43:48.361Z,5.07
2022-09-11T17:46:17.059Z,5.90
2022-09-11T17:48:44.054Z,5.63
2022-09-11T17:51:22.294Z,7.18
2022-09-11T17:53:50.750Z,4.68
2022-09-11T17:56:22.030Z,5.63
2022-09-11T17:58:55.734Z,7.10
2022-09-11T18:01:22.843Z,6.10
2022-09-11T18:03:51.061Z,6.22
2022-09-11T18:06:34.143Z,7.28
2022-09-11T18:09:06.079Z,5.35
2022-09-11T18:11:33.118Z,8.40
2022-09-11T18:14:00.412Z,6.80
2022-09-11T18:16:27.536Z,7.60
2022-09-11T18:18:55.547Z,8.85
2022-09-11T18:21:22.578Z,4.30
2022-09-11T18:23:49.850Z,5.20
2022-09-11T18:26:29.707Z,7.60
2022-09-11T18:28:59.879Z,6.60
2022-09-11T18:31:30.128Z,5.00
2022-09-11T18:33:59.955Z,8.95
2022-09-11T18:36:28.279Z,7.07
2022-09-11T18:38:56.274Z,7.70
2022-09-11T18:41:23.178Z,8.52
2022-09-11T18:43:54.070Z,7.13
2022-09-11T18:46:21.840Z,7.75
2022-09-11T18:48:50.339Z,7.88
2022-09-11T18:51:17.568Z,7.03
2022-09-11T18:53:46.792Z,6.45
2022-09-11T18:56:13.653Z,6.88
2022-09-11T18:58:40.750Z,7.07
2022-09-11T19:01:08.678Z,8.10
2022-09-11T19:03:36.633Z,8.75
2022-09-11T19:06:06.628Z,7.47
2022-09-11T19:08:33.665Z,8.35
2022-09-11T19:11:00.458Z,6.40
2022-09-11T19:13:27.575Z,6.80
2022-09-11T19:15:58.127Z,7.13
2022-09-11T19:18:25.775Z,7.10
2022-09-11T19:21:03.981Z,7.88
2022-09-11T19:23:34.960Z,7.22
2022-09-11T19:26:06.314Z,6.38
2022-09-11T19:28:35.501Z,8.98
2022-09-11T19:31:02.467Z,9.60
2022-09-11T19:33:29.856Z,8.05
2022-09-11T19:35:57.683Z,8.88
2022-09-11T19:38:27.897Z,9.85
2022-09-11T19:40:54.674Z,8.70
2022-09-11T19:43:23.617Z,10.57
2022-09-11T19:45:51.327Z,8.02
2022-09-11T19:48:18.450Z,10.07
2022-09-11T19:50:45.637Z,8.45
2022-09-11T19:53:12.647Z,9.52
2022-09-11T19:55:39.671Z,9.73
2022-09-11T19:58:06.456Z,9.63
2022-09-11T20:00:36.550Z,9.75
2022-09-11T20:03:03.433Z,10.63
2022-09-11T20:05:31.000Z,9.60
2022-09-11T20:07:57.834Z,10.35
2022-09-11T20:10:24.646Z,9.52
2022-09-11T20:12:51.403Z,10.95
2022-09-11T20:15:18.342Z,10.07
2022-09-11T20:17:45.597Z,14.15
2022-09-11T20:20:12.442Z,10.95
2022-09-11T20:22:39.215Z,13.18
2022-09-11T20:25:06.779Z,10.85
2022-09-11T20:27:34.194Z,10.63
2022-09-11T20:30:00.963Z,10.77
2022-09-11T20:32:27.834Z,10.38
2022-09-11T20:34:54.718Z,12.27
2022-09-11T20:37:21.507Z,13.13
2022-09-11T20:39:48.340Z,15.30
2022-09-11T20:42:15.186Z,13.45
2022-09-11T20:44:42.358Z,14.05
2022-09-11T20:47:11.685Z,13.82
2022-09-11T20:49:39.505Z,11.43
2022-09-11T20:52:06.282Z,11.63
2022-09-11T20:54:33.083Z,13.80
2022-09-11T20:57:00.556Z,12.80
2022-09-11T20:59:27.550Z,14.23
2022-09-11T21:01:54.645Z,16.27
2022-09-11T21:04:23.508Z,14.25
2022-09-11T21:06:50.719Z,15.07
2022-09-11T21:09:17.585Z,15.23
2022-09-11T21:11:44.428Z,14.95
2022-09-11T21:14:12.023Z,16.63
2022-09-11T21:16:38.852Z,15.38
2022-09-11T21:19:09.050Z,15.77
2022-09-11T21:21:37.783Z,15.50
2022-09-11T21:24:06.058Z,17.23
2022-09-11T21:26:33.192Z,18.55
2022-09-11T21:29:01.573Z,16.38
2022-09-11T21:31:28.638Z,17.42
2022-09-11T21:33:55.497Z,18.95
2022-09-11T21:36:22.534Z,18.95
2022-09-11T21:38:49.389Z,19.63
2022-09-11T21:41:16.242Z,18.08
2022-09-11T21:43:43.034Z,19.70
2022-09-11T21:46:09.935Z,18.48
2022-09-11T21:48:38.417Z,22.27
2022-09-11T21:51:15.432Z,24.13
2022-09-11T21:53:43.556Z,19.45
2022-09-11T21:56:25.047Z,20.33
2022-09-11T21:58:52.203Z,25.00
2022-09-11T22:01:19.985Z,19.77
2022-09-11T22:03:46.922Z,22.27
2022-09-11T22:06:14.087Z,23.33
2022-09-11T22:08:43.110Z,22.80
2022-09-11T22:11:10.594Z,21.98
2022-09-11T22:13:37.850Z,23.80
2022-09-11T22:16:06.970Z,26.10
2022-09-11T22:18:33.870Z,22.23
2022-09-11T22:21:01.486Z,23.73
2022-09-11T22:23:29.003Z,24.38
2022-09-11T22:26:16.030Z,25.40
2022-09-11T22:28:43.607Z,25.02
2022-09-11T22:31:15.827Z,23.67
2022-09-11T22:33:43.160Z,25.15
2022-09-11T22:36:11.759Z,25.80
2022-09-11T22:38:38.618Z,27.88
2022-09-11T22:41:05.859Z,26.33
2022-09-11T22:43:32.638Z,28.25
2022-09-11T22:45:59.729Z,29.45
2022-09-11T22:48:26.994Z,26.95
2022-09-11T22:50:54.313Z,32.25
2022-09-11T22:53:21.126Z,28.60
2022-09-11T22:55:49.514Z,28.95
2022-09-11T22:58:16.494Z,28.60
2022-09-11T23:00:43.625Z,26.33
2022-09-11T23:03:10.739Z,26.55
2022-09-11T23:05:56.311Z,29.60
2022-09-11T23:08:27.763Z,26.35
2022-09-11T23:10:54.535Z,26.83
2022-09-11T23:13:21.354Z,28.83
2022-09-11T23:15:48.187Z,26.48
2022-09-11T23:18:15.541Z,24.85
2022-09-11T23:20:42.358Z,26.52
2022-09-11T23:23:09.179Z,26.25
2022-09-11T23:25:42.175Z,27.80
2022-09-11T23:28:09.017Z,29.08
2022-09-11T23:30:39.141Z,29.00
2022-09-11T23:33:05.899Z,27.60
2022-09-11T23:35:33.065Z,26.95
2022-09-11T23:38:00.413Z,26.55
2022-09-11T23:40:31.378Z,27.20
2022-09-11T23:43:00.313Z,27.63
2022-09-11T23:45:27.369Z,29.45
2022-09-11T23:47:54.158Z,27.83
2022-09-11T23:50:21.007Z,27.60
2022-09-11T23:52:49.055Z,29.65
2022-09-11T23:55:17.668Z,24.98
2022-09-11T23:57:44.721Z,29.90
